Time;durP1;ratioP1;P1;durP2;ratioP2;P2;SDS_P1;SDS_P2;PMS_P1;PMS_P2;Temp;Humidity;BMP_temperature;BMP_pressure;BME280_temperature;BME280_humidity;BME280_pressure;Samples;Min_cycle;Max_cycle;Signal;HPM_P1;HPM_P2
2021/12/23 00:02:25;;;;;;;17.77;14.07;;;0.20;99.90;;;;;;5058938;28;20202;-85
2021/12/23 00:04:50;;;;;;;17.20;14.03;;;0.20;99.90;;;;;;5059229;28;20182;-85
2021/12/23 00:07:16;;;;;;;17.33;14.43;;;0.20;99.90;;;;;;5059308;28;20177;-84
2021/12/23 00:10:06;;;;;;;16.07;13.67;;;0.30;99.90;;;;;;5058530;28;20582;-85
2021/12/23 00:12:28;;;;;;;15.90;13.43;;;0.30;99.90;;;;;;5059593;28;20194;-86
2021/12/23 00:14:55;;;;;;;16.30;13.53;;;0.30;99.90;;;;;;5059602;28;20186;-85
2021/12/23 00:25:23;;;;;;;19.73;14.20;;;0.40;99.90;;;;;;5071280;28;20252;-85
2021/12/23 00:27:49;;;;;;;17.53;13.70;;;0.40;99.90;;;;;;5067054;28;20174;-85
2021/12/23 00:30:15;;;;;;;16.53;13.77;;;0.40;99.90;;;;;;5066270;28;20698;-85
2021/12/23 00:32:40;;;;;;;17.90;14.37;;;0.40;99.90;;;;;;5064915;28;20205;-86
2021/12/23 00:35:09;;;;;;;17.20;13.73;;;0.40;99.90;;;;;;5064573;28;20193;-85
2021/12/23 00:37:41;;;;;;;15.37;13.00;;;0.40;99.90;;;;;;5079787;28;20258;-85
2021/12/23 00:40:10;;;;;;;16.00;13.23;;;0.30;99.90;;;;;;5063302;28;20174;-85
2021/12/23 00:42:36;;;;;;;15.00;13.40;;;0.30;99.90;;;;;;5062734;28;20218;-85
2021/12/23 00:45:03;;;;;;;15.00;13.43;;;0.30;99.90;;;;;;5053851;28;20183;-86
2021/12/23 00:47:30;;;;;;;15.00;13.40;;;0.20;99.90;;;;;;5070570;28;20197;-84
2021/12/23 00:49:57;;;;;;;15.37;13.77;;;0.20;99.90;;;;;;5054570;28;20178;-84
2021/12/23 00:52:35;;;;;;;18.27;13.83;;;0.10;99.90;;;;;;5054258;28;20186;-84
2021/12/23 00:55:02;;;;;;;15.83;13.43;;;0.10;99.90;;;;;;5054623;28;20550;-84
2021/12/23 00:57:29;;;;;;;14.30;12.80;;;0.00;99.90;;;;;;5055036;28;20225;-85
2021/12/23 00:59:57;;;;;;;17.60;14.13;;;0.00;99.90;;;;;;5054715;28;20170;-85
2021/12/23 01:02:27;;;;;;;15.47;13.87;;;-0.10;99.90;;;;;;5055043;28;20234;-86
2021/12/23 01:04:53;;;;;;;17.77;13.43;;;0.00;99.90;;;;;;5055515;28;20277;-86
2021/12/23 01:07:19;;;;;;;15.20;13.07;;;0.00;99.90;;;;;;5056145;28;20623;-86
2021/12/23 01:09:45;;;;;;;18.00;15.17;;;0.00;99.90;;;;;;5056265;28;20179;-86
2021/12/23 01:12:13;;;;;;;18.73;15.10;;;0.00;99.90;;;;;;5057259;28;20285;-85
2021/12/23 01:14:53;;;;;;;16.43;13.87;;;0.10;99.90;;;;;;5057100;28;20175;-86
2021/12/23 01:17:31;;;;;;;18.50;14.43;;;0.10;99.90;;;;;;5060269;28;20560;-85
2021/12/23 01:19:57;;;;;;;17.73;14.70;;;0.30;99.90;;;;;;5062530;28;20240;-84
2021/12/23 01:22:23;;;;;;;17.00;13.90;;;0.40;99.90;;;;;;5060717;28;20198;-84
2021/12/23 01:24:50;;;;;;;16.70;14.20;;;0.40;99.90;;;;;;5061720;28;20186;-84
2021/12/23 01:27:16;;;;;;;16.03;14.20;;;0.40;99.90;;;;;;5065543;28;20181;-85
2021/12/23 01:29:42;;;;;;;16.87;13.77;;;0.40;99.90;;;;;;5062727;28;20205;-86
2021/12/23 01:32:09;;;;;;;17.33;14.70;;;0.50;99.90;;;;;;5061277;28;20178;-86
2021/12/23 01:34:36;;;;;;;17.50;13.93;;;0.50;99.90;;;;;;5059990;28;20199;-87
2021/12/23 01:37:06;;;;;;;18.53;14.20;;;0.50;99.90;;;;;;5062301;28;20205;-86
2021/12/23 01:39:33;;;;;;;18.47;13.43;;;0.60;99.90;;;;;;5079637;28;20228;-86
2021/12/23 01:41:58;;;;;;;18.33;14.57;;;0.70;99.90;;;;;;5062213;28;20609;-87
2021/12/23 01:44:24;;;;;;;17.20;14.03;;;0.70;99.90;;;;;;5061929;28;20190;-86
2021/12/23 01:46:50;;;;;;;15.43;13.53;;;0.60;99.90;;;;;;5061510;28;20273;-87
2021/12/23 01:49:16;;;;;;;19.17;14.63;;;0.70;99.90;;;;;;5061885;28;20174;-86
2021/12/23 01:51:42;;;;;;;15.30;13.67;;;0.60;99.90;;;;;;5062405;28;20182;-86
2021/12/23 01:54:07;;;;;;;18.40;14.30;;;0.50;99.90;;;;;;5064843;28;20191;-86
2021/12/23 01:56:33;;;;;;;17.73;13.63;;;0.50;99.90;;;;;;5062907;28;20179;-86
2021/12/23 01:58:59;;;;;;;15.07;12.90;;;0.50;99.90;;;;;;5061976;28;20643;-86
2021/12/23 02:01:25;;;;;;;14.60;12.67;;;0.40;99.90;;;;;;5061115;28;20202;-84
2021/12/23 02:03:51;;;;;;;14.17;12.33;;;0.40;99.90;;;;;;5080254;28;20206;-85
2021/12/23 02:06:17;;;;;;;15.90;13.67;;;0.30;99.90;;;;;;5064208;28;20174;-84
2021/12/23 02:08:43;;;;;;;16.73;13.77;;;0.30;99.90;;;;;;5064446;28;20181;-84
2021/12/23 02:11:11;;;;;;;18.30;15.37;;;0.20;99.90;;;;;;5064817;28;20182;-84
2021/12/23 02:13:37;;;;;;;16.87;14.30;;;0.20;99.90;;;;;;5063769;28;20588;-84
2021/12/23 02:16:04;;;;;;;16.10;13.90;;;0.20;99.90;;;;;;5064446;28;20179;-84
2021/12/23 02:18:30;;;;;;;19.07;15.60;;;0.20;99.90;;;;;;5064532;28;20182;-85
2021/12/23 02:20:57;;;;;;;18.40;15.73;;;0.30;99.90;;;;;;5079103;28;20236;-85
2021/12/23 02:23:25;;;;;;;18.37;15.03;;;0.30;99.90;;;;;;5062157;28;20194;-85
2021/12/23 02:25:51;;;;;;;19.37;14.90;;;0.40;99.90;;;;;;5063513;28;20249;-85
2021/12/23 02:28:18;;;;;;;21.90;16.43;;;0.50;99.90;;;;;;5063518;28;20267;-85
2021/12/23 02:30:44;;;;;;;20.03;15.53;;;0.60;99.90;;;;;;5061861;28;20186;-85
2021/12/23 02:33:11;;;;;;;21.57;16.73;;;0.60;99.90;;;;;;5060204;28;20621;-85
2021/12/23 02:35:37;;;;;;;25.20;16.60;;;0.70;99.90;;;;;;5055963;28;20209;-85
2021/12/23 02:38:04;;;;;;;19.50;14.73;;;0.70;99.90;;;;;;5057610;28;20316;-85
2021/12/23 02:40:39;;;;;;;19.57;15.23;;;0.70;99.90;;;;;;5057039;28;20561;-86
2021/12/23 02:43:12;;;;;;;18.90;15.20;;;0.70;99.90;;;;;;5058029;28;20210;-85
2021/12/23 02:45:39;;;;;;;22.03;15.20;;;0.70;99.90;;;;;;5056958;28;20225;-85
2021/12/23 02:48:09;;;;;;;19.53;15.13;;;0.60;99.90;;;;;;5055611;28;20543;-85
2021/12/23 02:50:35;;;;;;;19.80;14.90;;;0.60;99.90;;;;;;5056613;28;20173;-85
2021/12/23 02:53:01;;;;;;;20.40;15.17;;;0.60;99.90;;;;;;5057027;28;20206;-85
2021/12/23 02:55:27;;;;;;;19.13;14.43;;;0.60;99.90;;;;;;5057667;28;20643;-85
2021/12/23 02:57:53;;;;;;;19.23;15.33;;;0.50;99.90;;;;;;5058230;28;20261;-85
2021/12/23 03:00:20;;;;;;;20.07;14.57;;;0.50;99.90;;;;;;5058768;28;20182;-86
2021/12/23 03:02:46;;;;;;;17.10;14.27;;;0.50;99.90;;;;;;5059238;28;20206;-84
2021/12/23 03:05:11;;;;;;;19.67;15.67;;;0.40;99.90;;;;;;5058665;28;20182;-84
2021/12/23 03:07:37;;;;;;;18.97;15.00;;;0.40;99.90;;;;;;5059250;28;20175;-84
2021/12/23 03:10:06;;;;;;;20.23;15.73;;;0.40;99.90;;;;;;5057577;28;20175;-84
2021/12/23 03:12:31;;;;;;;18.83;14.17;;;0.40;99.90;;;;;;5058557;28;20245;-86
2021/12/23 03:14:59;;;;;;;20.30;14.87;;;0.40;99.90;;;;;;5060510;28;20174;-86
2021/12/23 03:17:25;;;;;;;19.23;15.63;;;0.40;99.90;;;;;;5058051;28;20221;-85
2021/12/23 03:19:51;;;;;;;17.00;14.37;;;0.40;99.90;;;;;;5057561;28;20186;-84
2021/12/23 03:22:16;;;;;;;18.43;14.33;;;0.30;99.90;;;;;;5059390;28;20637;-86
2021/12/23 03:24:42;;;;;;;19.07;14.60;;;0.30;99.90;;;;;;5060193;28;20190;-86
2021/12/23 03:27:08;;;;;;;17.17;14.43;;;0.30;99.90;;;;;;5060158;28;20546;-86
2021/12/23 03:29:34;;;;;;;18.23;16.03;;;0.30;99.90;;;;;;5059102;28;20181;-86
2021/12/23 03:32:00;;;;;;;24.30;16.70;;;0.30;99.90;;;;;;5059060;28;20193;-86
2021/12/23 03:34:26;;;;;;;22.53;16.27;;;0.30;99.90;;;;;;5056130;28;20194;-85
2021/12/23 03:36:52;;;;;;;18.83;16.13;;;0.40;99.90;;;;;;5054421;28;20182;-85
2021/12/23 03:39:19;;;;;;;22.13;16.83;;;0.50;99.90;;;;;;5055183;28;20659;-86
2021/12/23 03:41:45;;;;;;;21.87;16.17;;;0.50;99.90;;;;;;5055584;28;20690;-86
2021/12/23 03:44:11;;;;;;;19.43;15.67;;;0.60;99.90;;;;;;5056271;28;20226;-86
2021/12/23 03:46:37;;;;;;;22.37;17.17;;;0.60;99.90;;;;;;5056494;28;20224;-86
2021/12/23 03:49:07;;;;;;;22.33;17.23;;;0.70;99.90;;;;;;5057351;28;20167;-85
2021/12/23 03:51:33;;;;;;;22.27;17.03;;;0.90;99.90;;;;;;5058148;28;20241;-86
2021/12/23 03:53:59;;;;;;;22.93;17.00;;;0.90;99.90;;;;;;5057604;28;20229;-87
2021/12/23 03:56:25;;;;;;;24.97;16.90;;;1.00;99.90;;;;;;5057127;28;20175;-87
2021/12/23 03:58:51;;;;;;;24.17;17.03;;;1.00;99.90;;;;;;5058259;28;20189;-87
2021/12/23 04:01:17;;;;;;;22.17;16.30;;;1.00;99.90;;;;;;5057860;28;20203;-84
2021/12/23 04:03:43;;;;;;;20.83;16.43;;;1.00;99.90;;;;;;5057051;28;20651;-84
2021/12/23 04:06:09;;;;;;;23.17;17.63;;;1.10;99.90;;;;;;5057594;28;20702;-87
2021/12/23 04:08:35;;;;;;;22.27;17.73;;;1.10;99.90;;;;;;5058312;28;20202;-87
2021/12/23 04:11:01;;;;;;;24.47;17.30;;;1.00;99.90;;;;;;5057550;28;20233;-87
2021/12/23 04:13:27;;;;;;;22.20;17.60;;;1.00;99.90;;;;;;5057865;28;20208;-87
2021/12/23 04:15:53;;;;;;;22.47;17.57;;;1.00;99.90;;;;;;5059064;28;20181;-87
2021/12/23 04:18:19;;;;;;;25.50;17.90;;;0.90;99.90;;;;;;5058562;28;20197;-87
2021/12/23 04:20:53;;;;;;;22.40;17.03;;;0.90;99.90;;;;;;5058306;28;20179;-87
2021/12/23 04:23:25;;;;;;;23.30;16.63;;;0.80;99.90;;;;;;5058970;28;20198;-87
2021/12/23 04:25:52;;;;;;;26.77;19.23;;;0.80;99.90;;;;;;5058761;28;20199;-87
2021/12/23 04:28:19;;;;;;;24.47;18.93;;;0.70;99.90;;;;;;5058989;28;20182;-87
2021/12/23 04:30:45;;;;;;;26.27;19.70;;;0.70;99.90;;;;;;5056304;28;20292;-87
2021/12/23 04:33:11;;;;;;;30.53;19.80;;;0.60;99.90;;;;;;5054084;28;20213;-87
2021/12/23 04:35:37;;;;;;;27.47;19.37;;;0.60;99.90;;;;;;5056378;28;20580;-87
2021/12/23 04:38:03;;;;;;;25.30;19.40;;;0.60;99.90;;;;;;5054271;28;20277;-87
2021/12/23 04:40:34;;;;;;;27.37;20.03;;;0.50;99.90;;;;;;5054467;28;20218;-87
2021/12/23 04:43:01;;;;;;;26.50;18.80;;;0.50;99.90;;;;;;5055015;28;20260;-87
2021/12/23 04:45:27;;;;;;;28.53;19.80;;;0.40;99.90;;;;;;5055483;28;20180;-87
2021/12/23 04:47:53;;;;;;;29.00;20.23;;;0.40;99.90;;;;;;5055382;28;20257;-87
2021/12/23 04:50:19;;;;;;;24.07;19.07;;;0.40;99.90;;;;;;5056025;28;20178;-87
2021/12/23 04:52:45;;;;;;;28.20;20.00;;;0.40;99.90;;;;;;5055222;28;20206;-86
2021/12/23 04:55:13;;;;;;;32.40;20.67;;;0.30;99.90;;;;;;5055109;28;20258;-86
2021/12/23 04:57:39;;;;;;;26.57;20.23;;;0.40;99.90;;;;;;5054781;28;20753;-87
2021/12/23 05:00:09;;;;;;;30.27;21.27;;;0.40;99.90;;;;;;5057041;28;20179;-86
2021/12/23 05:02:34;;;;;;;27.10;19.17;;;0.30;99.90;;;;;;5076490;28;20206;-87
2021/12/23 05:05:00;;;;;;;25.03;18.67;;;0.30;99.90;;;;;;5059736;28;20181;-87
2021/12/23 05:07:26;;;;;;;22.30;18.07;;;0.20;99.90;;;;;;5059317;28;20170;-87
2021/12/23 05:09:52;;;;;;;26.57;19.40;;;0.20;99.90;;;;;;5059535;28;20183;-87
2021/12/23 05:12:17;;;;;;;29.83;20.50;;;0.20;99.90;;;;;;5059725;28;20174;-86
2021/12/23 05:14:43;;;;;;;29.90;21.60;;;0.10;99.90;;;;;;5059429;28;20190;-87
2021/12/23 05:17:09;;;;;;;28.43;18.90;;;0.10;99.90;;;;;;5059743;28;20178;-87
2021/12/23 05:19:35;;;;;;;32.90;21.10;;;0.00;99.90;;;;;;5059447;28;20213;-87
2021/12/23 05:22:00;;;;;;;31.43;21.07;;;0.00;99.90;;;;;;5060895;28;20205;-87
2021/12/23 05:24:26;;;;;;;30.10;21.47;;;0.00;99.90;;;;;;5059183;28;20216;-87
2021/12/23 05:26:52;;;;;;;28.30;20.87;;;0.00;99.90;;;;;;5058316;28;20213;-86
2021/12/23 05:29:18;;;;;;;30.23;20.47;;;0.00;99.90;;;;;;5058362;28;20177;-88
2021/12/23 05:31:44;;;;;;;32.13;20.57;;;0.00;99.90;;;;;;5058017;28;20179;-87
2021/12/23 05:34:09;;;;;;;29.90;20.17;;;0.00;99.90;;;;;;5059484;28;20249;-87
2021/12/23 05:36:35;;;;;;;29.00;20.03;;;0.00;99.90;;;;;;5057875;28;20179;-87
2021/12/23 05:39:02;;;;;;;26.63;20.00;;;0.00;99.90;;;;;;5057323;28;20182;-87
2021/12/23 05:41:28;;;;;;;31.03;20.77;;;-0.10;99.90;;;;;;5058181;28;20198;-87
2021/12/23 05:43:56;;;;;;;25.10;20.07;;;-0.10;99.90;;;;;;5055814;28;20190;-87
2021/12/23 05:46:22;;;;;;;29.70;19.37;;;-0.20;99.90;;;;;;5071978;28;20179;-87
2021/12/23 05:48:48;;;;;;;27.90;19.27;;;-0.20;99.90;;;;;;5055940;28;20179;-87
2021/12/23 05:51:14;;;;;;;26.27;19.50;;;-0.30;99.90;;;;;;5055818;28;20181;-87
2021/12/23 05:53:39;;;;;;;28.37;18.63;;;-0.30;99.90;;;;;;5055013;28;20694;-87
2021/12/23 05:56:06;;;;;;;27.03;18.70;;;-0.30;99.90;;;;;;5055255;28;20179;-87
2021/12/23 05:58:32;;;;;;;26.80;19.53;;;-0.30;99.90;;;;;;5067825;28;20187;-86
2021/12/23 06:00:58;;;;;;;28.87;20.70;;;-0.40;99.90;;;;;;5057251;28;20199;-87
2021/12/23 06:03:24;;;;;;;30.10;20.73;;;-0.40;99.90;;;;;;5055388;28;20273;-87
2021/12/23 06:05:51;;;;;;;33.03;21.63;;;-0.40;99.90;;;;;;5055646;28;20187;-87
2021/12/23 06:08:17;;;;;;;32.63;20.70;;;-0.40;99.90;;;;;;5054844;28;20232;-87
2021/12/23 06:10:43;;;;;;;33.30;21.23;;;-0.40;99.90;;;;;;5054563;28;20174;-87
2021/12/23 06:13:09;;;;;;;28.10;19.90;;;-0.30;99.90;;;;;;5055212;28;20202;-87
2021/12/23 06:15:34;;;;;;;28.47;20.00;;;-0.30;99.90;;;;;;5055410;28;20190;-87
2021/12/23 06:18:00;;;;;;;31.70;21.33;;;-0.20;99.90;;;;;;5055527;28;20178;-87
2021/12/23 06:20:26;;;;;;;31.97;22.07;;;-0.20;99.90;;;;;;5055835;28;20174;-87
2021/12/23 06:22:52;;;;;;;29.67;20.57;;;-0.10;99.90;;;;;;5055336;28;20211;-88
2021/12/23 06:25:18;;;;;;;28.37;20.57;;;-0.10;99.90;;;;;;5011984;28;1229082;-88
2021/12/23 06:27:44;;;;;;;28.50;21.03;;;-0.10;99.90;;;;;;5055627;28;20202;-87
2021/12/23 06:30:17;;;;;;;33.37;22.87;;;-0.10;99.90;;;;;;5055474;28;20178;-87
2021/12/23 06:32:44;;;;;;;34.90;22.97;;;-0.10;99.90;;;;;;5055451;28;20230;-87
2021/12/23 06:35:10;;;;;;;30.77;20.60;;;0.10;99.90;;;;;;5055490;28;20187;-87
2021/12/23 06:37:37;;;;;;;37.90;22.43;;;0.10;99.90;;;;;;5055992;28;20230;-84
2021/12/23 06:40:03;;;;;;;35.63;22.77;;;0.30;99.90;;;;;;5056382;28;20186;-82
2021/12/23 06:42:29;;;;;;;35.10;22.07;;;0.40;99.90;;;;;;5056552;28;20202;-82
2021/12/23 06:44:55;;;;;;;33.10;21.50;;;0.50;99.90;;;;;;5055021;28;20266;-82
2021/12/23 06:47:21;;;;;;;27.47;19.87;;;0.50;99.90;;;;;;5055954;28;20546;-82
2021/12/23 06:49:47;;;;;;;29.57;21.17;;;0.40;99.90;;;;;;5055730;28;20178;-82
2021/12/23 06:52:13;;;;;;;27.37;18.93;;;0.40;99.90;;;;;;5056369;28;20659;-84
2021/12/23 06:54:43;;;;;;;27.10;19.53;;;0.40;99.90;;;;;;5055967;28;20202;-84
2021/12/23 06:57:09;;;;;;;30.77;20.77;;;0.30;99.90;;;;;;5055893;28;20189;-84
2021/12/23 06:59:35;;;;;;;32.03;21.80;;;0.30;99.90;;;;;;5060363;28;20182;-84
2021/12/23 07:02:01;;;;;;;28.00;20.20;;;0.30;99.90;;;;;;5060568;28;20206;-84
2021/12/23 07:04:31;;;;;;;27.50;20.53;;;0.20;99.90;;;;;;5059465;28;20573;-84
2021/12/23 07:07:09;;;;;;;25.97;19.60;;;0.20;99.90;;;;;;5058262;28;20171;-85
2021/12/23 07:09:39;;;;;;;26.07;18.73;;;0.20;99.90;;;;;;5056246;28;20178;-85
2021/12/23 07:12:07;;;;;;;28.63;20.40;;;0.10;99.90;;;;;;5056013;28;20623;-85
2021/12/23 07:14:33;;;;;;;29.80;19.87;;;0.10;99.90;;;;;;5072418;28;20191;-85
2021/12/23 07:16:59;;;;;;;29.13;19.37;;;0.10;99.90;;;;;;5056507;28;20218;-85
2021/12/23 07:19:25;;;;;;;31.93;21.17;;;0.10;99.90;;;;;;5055670;28;20178;-85
2021/12/23 07:21:50;;;;;;;33.53;21.57;;;0.10;99.90;;;;;;5057604;28;20198;-84
2021/12/23 07:24:16;;;;;;;34.33;23.10;;;0.20;99.90;;;;;;5057402;28;20194;-85
2021/12/23 07:26:43;;;;;;;30.80;22.43;;;0.20;99.90;;;;;;5057237;28;20177;-85
2021/12/23 07:29:09;;;;;;;32.73;23.00;;;0.20;99.90;;;;;;5056636;28;20179;-84
2021/12/23 07:31:35;;;;;;;37.83;22.80;;;0.30;99.90;;;;;;5057979;28;20529;-85
2021/12/23 07:34:01;;;;;;;35.33;22.10;;;0.30;99.90;;;;;;5056699;28;20332;-84
2021/12/23 07:36:27;;;;;;;35.13;22.37;;;0.30;99.90;;;;;;5056088;28;20190;-85
2021/12/23 07:38:55;;;;;;;31.43;22.97;;;0.30;99.90;;;;;;5055996;28;20689;-85
2021/12/23 07:41:21;;;;;;;36.97;22.27;;;0.30;99.90;;;;;;5056284;28;20206;-85
2021/12/23 07:43:58;;;;;;;31.10;21.27;;;0.30;99.90;;;;;;5057830;28;20204;-84
2021/12/23 07:46:29;;;;;;;31.17;22.27;;;0.30;99.90;;;;;;5056779;28;20170;-85
2021/12/23 07:48:56;;;;;;;30.17;21.60;;;0.40;99.90;;;;;;5057035;28;20630;-84
2021/12/23 07:51:23;;;;;;;31.23;23.07;;;0.40;99.90;;;;;;5059073;28;20182;-85
2021/12/23 07:53:50;;;;;;;36.67;23.20;;;0.40;99.90;;;;;;5056377;28;20259;-85
2021/12/23 07:56:16;;;;;;;27.60;20.60;;;0.40;99.90;;;;;;5056700;28;20273;-85
2021/12/23 07:58:43;;;;;;;30.03;20.47;;;0.40;99.90;;;;;;5057216;28;20275;-85
2021/12/23 08:01:08;;;;;;;31.23;20.77;;;0.40;99.90;;;;;;5056039;28;20186;-85
2021/12/23 08:03:34;;;;;;;34.67;23.40;;;0.40;99.90;;;;;;5057299;28;20199;-85
2021/12/23 08:06:00;;;;;;;35.00;22.57;;;0.30;99.90;;;;;;5054765;28;20315;-85
2021/12/23 08:08:26;;;;;;;30.07;21.07;;;0.30;99.90;;;;;;5055157;28;20181;-85
2021/12/23 08:10:52;;;;;;;30.00;21.27;;;0.30;99.90;;;;;;5054521;28;20174;-85
2021/12/23 08:13:18;;;;;;;34.30;22.90;;;0.30;99.90;;;;;;5055233;28;20577;-86
2021/12/23 08:15:43;;;;;;;31.93;21.20;;;0.30;99.90;;;;;;5055409;28;20182;-85
2021/12/23 08:18:10;;;;;;;30.07;21.20;;;0.30;99.90;;;;;;5061281;28;20186;-85
2021/12/23 08:20:35;;;;;;;30.83;21.20;;;0.40;99.90;;;;;;5055603;28;20252;-85
2021/12/23 08:23:01;;;;;;;33.30;21.47;;;0.40;99.90;;;;;;5060514;28;20214;-84
2021/12/23 08:25:27;;;;;;;27.83;20.57;;;0.40;99.90;;;;;;5077975;28;20202;-85
2021/12/23 08:27:53;;;;;;;32.87;22.47;;;0.40;99.90;;;;;;5055222;28;20179;-85
2021/12/23 08:30:20;;;;;;;30.60;21.60;;;0.40;99.90;;;;;;5054881;28;20597;-84
2021/12/23 08:32:48;;;;;;;33.17;21.53;;;0.40;99.90;;;;;;5056265;28;20210;-85
2021/12/23 08:35:15;;;;;;;29.77;20.90;;;0.30;99.90;;;;;;5056244;28;20190;-85
2021/12/23 08:37:46;;;;;;;31.43;20.97;;;0.40;99.90;;;;;;5055188;28;20188;-85
2021/12/23 08:40:16;;;;;;;27.40;19.67;;;0.40;99.90;;;;;;5055619;28;20163;-85
2021/12/23 08:42:41;;;;;;;26.40;19.77;;;0.40;99.90;;;;;;5059328;28;20562;-85
2021/12/23 08:45:08;;;;;;;31.97;20.60;;;0.50;99.90;;;;;;5054555;28;20209;-85
2021/12/23 08:47:35;;;;;;;33.03;21.80;;;0.50;99.90;;;;;;5072716;28;20658;-85
2021/12/23 08:50:02;;;;;;;29.70;20.63;;;0.60;99.90;;;;;;5056191;28;20546;-85
2021/12/23 08:52:28;;;;;;;29.27;20.50;;;0.60;99.90;;;;;;5054968;28;20211;-84
2021/12/23 08:54:53;;;;;;;32.53;20.43;;;0.70;99.90;;;;;;5054787;28;20291;-85
2021/12/23 08:57:19;;;;;;;29.43;21.20;;;0.70;99.90;;;;;;5055069;28;20165;-85
2021/12/23 08:59:46;;;;;;;30.93;20.27;;;0.70;99.90;;;;;;5057543;28;20212;-85
2021/12/23 09:02:12;;;;;;;31.80;21.30;;;0.80;99.90;;;;;;5058176;28;20355;-85
2021/12/23 09:04:38;;;;;;;33.97;22.77;;;0.80;99.90;;;;;;5060683;28;20187;-85
2021/12/23 09:07:06;;;;;;;33.60;21.27;;;0.80;99.90;;;;;;5059280;28;20246;-84
2021/12/23 09:09:33;;;;;;;32.17;22.63;;;0.80;99.90;;;;;;5058350;28;20258;-85
2021/12/23 09:12:00;;;;;;;33.33;22.30;;;0.90;99.90;;;;;;5056660;28;20246;-85
2021/12/23 09:14:26;;;;;;;30.10;21.90;;;0.90;99.90;;;;;;5056540;28;20202;-85
2021/12/23 09:16:52;;;;;;;36.67;23.00;;;1.00;99.90;;;;;;5055985;28;20557;-85
2021/12/23 09:19:18;;;;;;;31.63;22.37;;;1.00;99.90;;;;;;5055815;28;20179;-85
2021/12/23 09:21:44;;;;;;;31.90;21.80;;;1.10;99.90;;;;;;5058610;28;20209;-85
2021/12/23 09:24:09;;;;;;;34.10;22.90;;;1.10;99.90;;;;;;5058054;28;20198;-85
2021/12/23 09:26:46;;;;;;;43.97;28.93;;;1.20;99.90;;;;;;5058172;28;20176;-85
2021/12/23 09:29:18;;;;;;;33.73;23.63;;;1.10;99.90;;;;;;5059019;28;20155;-85
2021/12/23 09:34:28;;;;;;;33.00;22.63;;;1.10;99.90;;;;;;5059339;28;20213;-85
2021/12/23 09:36:54;;;;;;;33.17;21.63;;;1.20;99.90;;;;;;5058388;28;20214;-85
2021/12/23 09:39:21;;;;;;;33.03;20.87;;;1.20;99.90;;;;;;5059602;28;20201;-85
2021/12/23 09:41:47;;;;;;;31.50;21.57;;;1.20;99.90;;;;;;5058937;28;20198;-85
2021/12/23 09:44:15;;;;;;;30.40;20.73;;;1.30;99.90;;;;;;5059162;28;20195;-85
2021/12/23 09:46:41;;;;;;;30.30;21.57;;;1.30;99.90;;;;;;5061005;28;20174;-84
2021/12/23 09:49:07;;;;;;;30.60;21.37;;;1.40;99.90;;;;;;5062696;28;20673;-85
2021/12/23 09:51:34;;;;;;;30.93;19.60;;;1.40;99.90;;;;;;5062546;28;20162;-85
2021/12/23 09:54:03;;;;;;;28.27;20.43;;;1.50;99.90;;;;;;5059544;28;20194;-85
2021/12/23 09:56:30;;;;;;;28.50;20.63;;;1.60;99.90;;;;;;5057930;28;20274;-86
2021/12/23 09:58:58;;;;;;;31.73;20.40;;;1.60;99.90;;;;;;5059509;28;20595;-85
2021/12/23 10:01:29;;;;;;;30.20;19.83;;;1.60;99.90;;;;;;5062698;28;20202;-85
2021/12/23 10:03:55;;;;;;;32.70;20.87;;;1.70;99.90;;;;;;5057759;28;20199;-86
2021/12/23 10:06:24;;;;;;;29.83;20.33;;;1.80;99.90;;;;;;5060677;28;20201;-86
2021/12/23 10:08:50;;;;;;;28.70;19.73;;;1.80;99.90;;;;;;5059604;28;20182;-86
2021/12/23 10:11:32;;;;;;;28.17;19.27;;;1.90;99.90;;;;;;5058029;28;20171;-86
2021/12/23 10:37:26;;;;;;;25.70;18.27;;;2.30;99.90;;;;;;5058229;28;20165;-86
2021/12/23 10:40:11;;;;;;;24.70;18.47;;;2.30;99.90;;;;;;5058163;28;20178;-85
2021/12/23 10:42:37;;;;;;;34.17;19.53;;;2.40;99.90;;;;;;5073883;28;20654;-85
2021/12/23 10:45:21;;;;;;;25.77;19.27;;;2.40;99.90;;;;;;5057925;28;20171;-86
2021/12/23 10:50:33;;;;;;;27.83;18.37;;;2.60;99.90;;;;;;5058240;28;20194;-86
2021/12/23 10:53:06;;;;;;;29.90;19.70;;;2.60;99.90;;;;;;5059042;28;20195;-85
2021/12/23 10:58:17;;;;;;;30.00;20.43;;;2.70;99.90;;;;;;5058089;28;20194;-86
2021/12/23 11:00:52;;;;;;;26.80;18.70;;;2.80;99.90;;;;;;5056743;28;20178;-85
2021/12/23 11:03:41;;;;;;;26.20;18.50;;;2.80;99.90;;;;;;5057759;28;20210;-86
2021/12/23 11:06:25;;;;;;;27.30;19.33;;;2.80;99.90;;;;;;5058290;28;20163;-86
2021/12/23 11:09:13;;;;;;;23.73;19.27;;;2.90;99.90;;;;;;5060285;28;20198;-86
2021/12/23 11:43:57;;;;;;;26.90;19.10;;;3.50;99.90;;;;;;5057560;28;20193;-85
2021/12/23 11:46:42;;;;;;;26.07;18.43;;;3.60;99.90;;;;;;5070625;28;20163;-85
2021/12/23 11:49:12;;;;;;;29.33;18.50;;;3.60;99.90;;;;;;5055162;28;20162;-85
2021/12/23 11:54:06;;;;;;;24.93;17.03;;;3.70;99.90;;;;;;5056736;28;20252;-86
2021/12/23 11:56:36;;;;;;;22.97;18.20;;;3.70;99.90;;;;;;5055014;28;20195;-85
2021/12/23 11:59:03;;;;;;;28.10;18.03;;;3.70;99.90;;;;;;5055002;28;20186;-85
2021/12/23 12:01:32;;;;;;;24.37;17.33;;;3.70;99.90;;;;;;5058155;28;20199;-85
2021/12/23 12:03:57;;;;;;;24.33;17.03;;;3.80;99.90;;;;;;5054821;28;20289;-85
2021/12/23 12:06:50;;;;;;;24.80;16.83;;;3.80;99.90;;;;;;5054024;28;20737;-85
2021/12/23 12:09:16;;;;;;;24.03;16.80;;;3.80;99.90;;;;;;5051919;28;20557;-85
2021/12/23 12:12:05;;;;;;;26.57;17.17;;;3.90;99.90;;;;;;5055339;28;20193;-85
2021/12/23 12:14:39;;;;;;;21.90;17.70;;;3.90;99.90;;;;;;5053380;28;20202;-85
2021/12/23 12:17:23;;;;;;;23.43;16.80;;;4.00;99.90;;;;;;5053685;28;20192;-85
2021/12/23 12:20:11;;;;;;;23.67;17.33;;;4.00;99.90;;;;;;5053532;28;20189;-85
2021/12/23 12:22:51;;;;;;;22.60;16.63;;;4.10;99.90;;;;;;5053570;28;20201;-85
2021/12/23 12:25:23;;;;;;;22.77;16.93;;;4.20;99.90;;;;;;5058865;28;20194;-85
2021/12/23 12:28:08;;;;;;;21.23;16.70;;;4.20;99.90;;;;;;5059495;28;20266;-85
2021/12/23 12:30:35;;;;;;;23.77;16.77;;;4.30;99.90;;;;;;5070709;28;20174;-86
2021/12/23 12:33:09;;;;;;;21.17;15.27;;;4.30;99.90;;;;;;5053820;28;20206;-85
2021/12/23 12:35:35;;;;;;;26.00;18.00;;;4.40;99.90;;;;;;5054028;28;20174;-85
2021/12/23 12:38:13;;;;;;;23.47;16.17;;;4.40;99.90;;;;;;5053498;28;20182;-85
2021/12/23 12:40:58;;;;;;;24.97;17.07;;;4.40;99.90;;;;;;5053523;28;20186;-85
2021/12/23 12:43:45;;;;;;;24.67;17.60;;;4.40;99.90;;;;;;5053326;28;20222;-85
2021/12/23 12:46:17;;;;;;;27.47;18.00;;;4.40;99.90;;;;;;5054845;28;20151;-85
2021/12/23 12:48:55;;;;;;;22.83;15.87;;;4.40;99.90;;;;;;5053648;28;20172;-85
2021/12/23 12:51:23;;;;;;;24.93;17.73;;;4.40;99.90;;;;;;5053790;28;20181;-85
2021/12/23 12:53:56;;;;;;;23.63;17.07;;;4.50;99.90;;;;;;5053652;28;20194;-85
2021/12/23 12:56:23;;;;;;;21.33;16.83;;;4.50;99.90;;;;;;5056781;28;20186;-85
2021/12/23 12:58:53;;;;;;;22.33;15.57;;;4.60;99.90;;;;;;5062289;28;20161;-85
2021/12/23 13:01:34;;;;;;;22.63;16.03;;;4.60;99.90;;;;;;5054914;28;20174;-85
2021/12/23 13:04:01;;;;;;;23.60;16.77;;;4.60;99.90;;;;;;5054931;28;20194;-85
2021/12/23 13:06:37;;;;;;;27.03;17.63;;;4.60;99.90;;;;;;5054459;28;20181;-85
2021/12/23 13:09:11;;;;;;;25.13;17.20;;;4.60;99.90;;;;;;5056415;28;20218;-85
2021/12/23 13:11:42;;;;;;;24.80;16.67;;;4.60;99.90;;;;;;5071930;28;20170;-85
2021/12/23 13:14:19;;;;;;;37.87;23.17;;;4.60;99.90;;;;;;5055568;28;20200;-85
2021/12/23 13:16:52;;;;;;;28.50;19.27;;;4.60;99.90;;;;;;5053777;28;20635;-85
2021/12/23 13:19:18;;;;;;;22.43;16.03;;;4.60;99.90;;;;;;5054317;28;20185;-85
2021/12/23 13:22:07;;;;;;;26.67;16.57;;;4.60;99.90;;;;;;5056892;28;20202;-85
2021/12/23 13:24:33;;;;;;;24.50;16.63;;;4.60;99.90;;;;;;5050520;28;20217;-85
2021/12/23 13:27:01;;;;;;;25.13;16.83;;;4.60;99.90;;;;;;5061384;28;20167;-85
2021/12/23 13:29:29;;;;;;;21.67;14.97;;;4.70;99.90;;;;;;5060844;28;20246;-85
2021/12/23 13:31:58;;;;;;;22.90;15.70;;;4.60;99.90;;;;;;5061141;28;20185;-85
2021/12/23 13:34:26;;;;;;;27.37;16.57;;;4.60;99.90;;;;;;5058058;28;20194;-85
2021/12/23 13:36:55;;;;;;;26.83;16.27;;;4.60;99.90;;;;;;5057575;28;20178;-85
2021/12/23 13:39:24;;;;;;;21.23;15.53;;;4.60;99.90;;;;;;5060330;28;20191;-85
2021/12/23 13:42:02;;;;;;;26.97;18.00;;;4.70;99.90;;;;;;5060417;28;20228;-85
2021/12/23 13:44:30;;;;;;;23.40;15.73;;;4.70;99.90;;;;;;5078289;28;20198;-85
2021/12/23 13:47:02;;;;;;;25.83;17.70;;;4.60;99.90;;;;;;5063224;28;20175;-85
2021/12/23 13:49:46;;;;;;;22.53;16.33;;;4.60;99.90;;;;;;5062848;28;20175;-85
2021/12/23 13:52:22;;;;;;;25.43;16.83;;;4.60;99.90;;;;;;5062499;28;20182;-85
2021/12/23 13:54:52;;;;;;;24.30;16.87;;;4.60;99.90;;;;;;5063853;28;20173;-85
2021/12/23 13:57:20;;;;;;;24.30;16.90;;;4.60;99.90;;;;;;5062673;28;20227;-85